createdAt,value
2019-02-06T00:02:13.306Z,102232.85
2019-02-06T00:04:51.824Z,102231.95
2019-02-06T00:07:33.041Z,102228.44
2019-02-06T00:10:09.579Z,102225.27
2019-02-06T00:12:42.774Z,102221.39
2019-02-06T00:15:26.226Z,102216.92
2019-02-06T00:18:00.361Z,102222.30
2019-02-06T00:20:45.222Z,102213.39
2019-02-06T00:23:16.136Z,102223.64
2019-02-06T00:25:47.216Z,102226.52
2019-02-06T00:28:20.559Z,102225.72
2019-02-06T00:30:55.602Z,102228.66
2019-02-06T00:33:28.978Z,102228.89
2019-02-06T00:36:14.962Z,102230.88
2019-02-06T00:39:07.667Z,102233.94
2019-02-06T00:41:40.259Z,102230.00
2019-02-06T00:44:11.260Z,102228.46
2019-02-06T00:46:43.101Z,102215.84
2019-02-06T00:49:15.475Z,102211.14
2019-02-06T00:51:49.073Z,102215.84
2019-02-06T00:54:21.868Z,102216.44
2019-02-06T00:56:55.317Z,102216.84
2019-02-06T00:59:26.570Z,102210.53
2019-02-06T01:02:03.753Z,102205.88
2019-02-06T01:04:36.911Z,102213.27
2019-02-06T01:07:07.907Z,102207.08
2019-02-06T01:09:43.043Z,102211.47
2019-02-06T01:12:17.247Z,102208.38
2019-02-06T01:14:50.473Z,102213.69
2019-02-06T01:17:21.509Z,102218.19
2019-02-06T01:19:55.379Z,102210.97
2019-02-06T01:22:36.469Z,102215.92
2019-02-06T01:25:15.363Z,102214.17
2019-02-06T01:28:02.252Z,102217.63
2019-02-06T01:30:44.894Z,102205.00
2019-02-06T01:33:24.886Z,102198.17
2019-02-06T01:35:56.682Z,102200.39
2019-02-06T01:38:30.400Z,102202.69
2019-02-06T01:41:04.776Z,102202.89
2019-02-06T01:43:37.109Z,102200.88
2019-02-06T01:46:08.289Z,102188.73
2019-02-06T01:48:40.655Z,102188.73
2019-02-06T01:51:12.538Z,102186.61
2019-02-06T01:53:45.853Z,102189.24
2019-02-06T01:56:21.127Z,102185.95
2019-02-06T01:58:55.097Z,102193.25
2019-02-06T02:01:25.764Z,102198.16
2019-02-06T02:03:57.941Z,102195.23
2019-02-06T02:06:36.351Z,102190.42
2019-02-06T02:09:23.217Z,102189.83
2019-02-06T02:11:56.439Z,102187.31
2019-02-06T02:14:32.990Z,102182.49
2019-02-06T02:17:07.566Z,102178.59
2019-02-06T02:19:39.498Z,102178.66
2019-02-06T02:22:17.123Z,102173.78
2019-02-06T02:24:49.243Z,102166.35
2019-02-06T02:27:22.418Z,102159.59
2019-02-06T02:29:53.387Z,102155.86
2019-02-06T02:32:25.480Z,102154.63
2019-02-06T02:35:00.774Z,102155.44
2019-02-06T02:37:33.983Z,102154.26
2019-02-06T02:40:22.723Z,102137.95
2019-02-06T02:43:00.325Z,102137.05
2019-02-06T02:45:40.065Z,102134.48
2019-02-06T02:48:15.068Z,102140.38
2019-02-06T02:50:48.982Z,102132.59
2019-02-06T02:53:23.911Z,102120.84
2019-02-06T02:55:57.466Z,102122.03
2019-02-06T02:58:35.162Z,102117.84
2019-02-06T03:01:33.754Z,102107.24
2019-02-06T03:04:13.272Z,102103.22
2019-02-06T03:06:45.838Z,102107.52
2019-02-06T03:09:23.023Z,102094.94
2019-02-06T03:11:58.624Z,102102.52
2019-02-06T03:14:30.941Z,102103.26
2019-02-06T03:17:04.103Z,102092.95
2019-02-06T03:19:36.496Z,102101.45
2019-02-06T03:22:11.855Z,102093.47
2019-02-06T03:24:44.216Z,102089.49
2019-02-06T03:27:18.712Z,102085.45
2019-02-06T03:29:53.846Z,102090.13
2019-02-06T03:32:28.327Z,102078.34
2019-02-06T03:35:05.218Z,102066.24
2019-02-06T03:37:41.142Z,102069.59
2019-02-06T03:40:20.142Z,102065.23
2019-02-06T03:42:55.671Z,102058.45
2019-02-06T03:45:37.778Z,102061.41
2019-02-06T03:48:26.800Z,102054.98
2019-02-06T03:50:57.763Z,102054.94
2019-02-06T03:53:35.189Z,102050.24
2019-02-06T03:56:11.451Z,102047.55
2019-02-06T03:58:42.972Z,102054.91
2019-02-06T04:01:19.008Z,102047.24
2019-02-06T04:03:53.787Z,102041.45
2019-02-06T04:06:26.526Z,102045.86
2019-02-06T04:08:58.062Z,102036.05
2019-02-06T04:11:36.964Z,102025.61
2019-02-06T04:14:11.047Z,102037.08
2019-02-06T04:16:51.686Z,102036.36
2019-02-06T04:19:28.830Z,102034.27
2019-02-06T04:22:05.142Z,102038.70
2019-02-06T04:24:36.034Z,102036.00
2019-02-06T04:27:19.731Z,102038.27
2019-02-06T04:29:56.331Z,102032.71
2019-02-06T04:32:30.632Z,102034.39
2019-02-06T04:35:02.388Z,102035.31
2019-02-06T04:37:34.721Z,102041.39
2019-02-06T04:40:07.663Z,102040.75
2019-02-06T04:42:39.108Z,102041.26
2019-02-06T04:45:11.702Z,102040.76
2019-02-06T04:47:45.513Z,102040.73
2019-02-06T04:50:21.057Z,102040.14
2019-02-06T04:53:06.497Z,101979.05
2019-02-06T04:55:41.552Z,102040.41
2019-02-06T04:58:18.158Z,102035.94
2019-02-06T05:01:03.911Z,102032.89
2019-02-06T05:03:49.560Z,102024.98
2019-02-06T05:06:27.431Z,102025.67
2019-02-06T05:09:04.775Z,102023.81
2019-02-06T05:11:37.120Z,102014.44
2019-02-06T05:14:14.251Z,102008.56
2019-02-06T05:16:48.447Z,102010.07
2019-02-06T05:19:19.683Z,102005.23
2019-02-06T05:21:52.363Z,102002.10
2019-02-06T05:24:38.728Z,101999.51
2019-02-06T05:27:11.486Z,101997.95
2019-02-06T05:29:42.455Z,101990.02
2019-02-06T05:32:24.094Z,101981.70
2019-02-06T05:34:57.460Z,101983.17
2019-02-06T05:37:40.006Z,101973.52
2019-02-06T05:40:20.652Z,101974.02
2019-02-06T05:42:56.162Z,101976.36
2019-02-06T05:48:27.246Z,101983.91
2019-02-06T05:51:03.557Z,101978.48
2019-02-06T05:53:37.187Z,101977.14
2019-02-06T05:56:07.428Z,101973.45
2019-02-06T05:58:39.466Z,101983.10
2019-02-06T06:01:14.422Z,101970.63
2019-02-06T06:03:46.483Z,101967.99
2019-02-06T06:06:18.447Z,101976.97
2019-02-06T06:08:54.492Z,101966.01
2019-02-06T06:11:27.084Z,101965.35
2019-02-06T06:14:01.268Z,101965.67
2019-02-06T06:16:33.572Z,101973.55
2019-02-06T06:19:08.007Z,101981.41
2019-02-06T06:21:52.718Z,101968.86
2019-02-06T06:24:27.231Z,101977.20
2019-02-06T06:26:59.947Z,101977.63
2019-02-06T06:29:44.208Z,101972.37
2019-02-06T06:32:17.180Z,101973.20
2019-02-06T06:34:54.290Z,101970.73
2019-02-06T06:40:47.652Z,101957.10
2019-02-06T06:43:29.978Z,101961.48
2019-02-06T06:46:00.441Z,101955.09
2019-02-06T06:48:32.039Z,101950.58
2019-02-06T06:51:04.415Z,101955.03
2019-02-06T06:53:35.521Z,101959.55
2019-02-06T06:56:09.575Z,101950.28
2019-02-06T06:58:42.978Z,101953.92
2019-02-06T07:01:17.752Z,101954.52
2019-02-06T07:04:00.027Z,101951.35
2019-02-06T07:06:31.315Z,101952.09
2019-02-06T07:09:12.279Z,101948.03
2019-02-06T07:11:50.632Z,101939.15
2019-02-06T07:14:20.800Z,101934.97
2019-02-06T07:16:55.721Z,101941.89
2019-02-06T07:19:28.718Z,101941.70
2019-02-06T07:22:03.727Z,101940.48
2019-02-06T07:24:39.312Z,101933.55
2019-02-06T07:27:11.497Z,101949.12
2019-02-06T07:29:45.888Z,101941.87
2019-02-06T07:32:20.124Z,101946.95
2019-02-06T07:35:00.341Z,101948.53
2019-02-06T07:37:34.685Z,101934.33
2019-02-06T07:40:20.585Z,101938.16
2019-02-06T07:43:00.835Z,101934.64
2019-02-06T07:45:34.706Z,101935.56
2019-02-06T07:48:09.757Z,101940.70
2019-02-06T07:50:43.900Z,101943.36
2019-02-06T07:53:18.312Z,101935.57
2019-02-06T07:55:53.435Z,101943.16
2019-02-06T07:58:28.864Z,101935.25
2019-02-06T08:01:00.160Z,101934.17
2019-02-06T08:03:33.449Z,101935.51
2019-02-06T08:06:04.774Z,101929.61
2019-02-06T08:08:36.527Z,101935.25
2019-02-06T08:11:09.493Z,101940.38
2019-02-06T08:13:40.154Z,101935.84
2019-02-06T08:16:11.027Z,101927.23
2019-02-06T08:18:42.933Z,101932.56
2019-02-06T08:21:14.120Z,101934.07
2019-02-06T08:23:48.396Z,101938.13
2019-02-06T08:26:20.539Z,101940.86
2019-02-06T08:28:52.191Z,101937.67
2019-02-06T08:31:24.389Z,101930.81
2019-02-06T08:33:54.952Z,101930.88
2019-02-06T08:36:26.091Z,101940.84
2019-02-06T08:38:59.402Z,101937.09
2019-02-06T08:41:34.219Z,101940.50
2019-02-06T08:44:08.478Z,101937.80
2019-02-06T08:46:40.944Z,101935.28
2019-02-06T08:49:12.729Z,101937.30
2019-02-06T08:51:47.844Z,101931.95
2019-02-06T08:54:20.443Z,101939.66
2019-02-06T08:56:54.402Z,101930.81
2019-02-06T08:59:27.411Z,101930.47
2019-02-06T09:02:01.276Z,101929.42
2019-02-06T09:04:34.513Z,101924.25
2019-02-06T09:07:07.089Z,101930.24
2019-02-06T09:09:37.554Z,101929.56
2019-02-06T09:12:11.692Z,101924.24
2019-02-06T09:14:42.164Z,101938.73
2019-02-06T09:17:14.605Z,101924.91
2019-02-06T09:19:46.241Z,101930.42
2019-02-06T09:22:17.410Z,101928.08
2019-02-06T09:24:49.304Z,101927.73
2019-02-06T09:27:29.299Z,101938.41
2019-02-06T09:30:01.016Z,101933.55
2019-02-06T09:32:35.745Z,101937.02
2019-02-06T09:35:08.235Z,101929.45
2019-02-06T09:37:39.574Z,101936.08
2019-02-06T09:40:13.953Z,101945.04
2019-02-06T09:42:52.001Z,101943.37
2019-02-06T09:45:25.311Z,101944.92
2019-02-06T09:48:00.650Z,101952.91
2019-02-06T09:50:51.148Z,101954.23
2019-02-06T09:53:23.378Z,101958.04
2019-02-06T09:55:55.744Z,101961.19
2019-02-06T09:58:32.505Z,101958.47
2019-02-06T10:01:06.166Z,101952.25
2019-02-06T10:03:37.686Z,101957.44
2019-02-06T10:06:08.359Z,101950.09
2019-02-06T10:08:39.319Z,101947.19
2019-02-06T10:11:10.275Z,101946.89
2019-02-06T10:13:46.098Z,101944.02
2019-02-06T10:16:20.266Z,101946.84
2019-02-06T10:19:06.289Z,101946.98
2019-02-06T10:21:38.424Z,101945.98
2019-02-06T10:24:11.423Z,101947.14
2019-02-06T10:26:45.984Z,101948.63
2019-02-06T10:29:18.906Z,101942.56
2019-02-06T10:31:50.135Z,101942.11
2019-02-06T10:34:21.586Z,101931.17
2019-02-06T10:36:54.657Z,101933.66
2019-02-06T10:39:34.687Z,101929.13
2019-02-06T10:42:05.542Z,101934.55
2019-02-06T10:44:38.482Z,101930.23
2019-02-06T10:47:10.563Z,101929.39
2019-02-06T10:49:44.115Z,101932.17
2019-02-06T10:52:15.363Z,101934.30
2019-02-06T10:54:53.117Z,101932.94
2019-02-06T10:57:26.435Z,101932.06
2019-02-06T11:00:00.880Z,101930.83
2019-02-06T11:02:34.765Z,101923.78
2019-02-06T11:05:06.464Z,101926.45
2019-02-06T11:07:39.775Z,101917.19
2019-02-06T11:10:13.034Z,101910.63
2019-02-06T11:12:44.504Z,101907.95
2019-02-06T11:15:23.066Z,101907.09
2019-02-06T11:17:56.801Z,101911.90
2019-02-06T11:20:29.080Z,101903.44
2019-02-06T11:22:59.550Z,101907.02
2019-02-06T11:25:33.010Z,101898.60
2019-02-06T11:28:03.501Z,101900.66
2019-02-06T11:30:37.743Z,101889.36
2019-02-06T11:33:11.077Z,101888.53
2019-02-06T11:35:43.736Z,101889.77
2019-02-06T11:38:15.247Z,101881.78
2019-02-06T11:40:46.936Z,101880.56
2019-02-06T11:43:19.569Z,101874.34
2019-02-06T11:45:51.991Z,101864.59
2019-02-06T11:48:25.552Z,101868.42
2019-02-06T11:50:55.970Z,101856.59
2019-02-06T11:53:31.495Z,101844.67
2019-02-06T11:56:03.595Z,101844.91
2019-02-06T11:58:35.364Z,101832.17
2019-02-06T12:01:13.014Z,101831.73
2019-02-06T12:03:43.188Z,101833.95
2019-02-06T12:06:18.812Z,101828.23
2019-02-06T12:08:49.550Z,101825.32
2019-02-06T12:11:23.598Z,101824.48
2019-02-06T12:13:54.367Z,101822.40
2019-02-06T12:16:31.937Z,101826.34
2019-02-06T12:19:02.695Z,101818.59
2019-02-06T12:21:33.352Z,101814.34
2019-02-06T12:24:04.020Z,101802.45
2019-02-06T12:26:37.469Z,101803.47
2019-02-06T12:29:12.366Z,101794.67
2019-02-06T12:31:45.265Z,101792.07
2019-02-06T12:34:17.277Z,101794.52
2019-02-06T12:36:49.233Z,101789.23
2019-02-06T12:39:22.705Z,101781.66
2019-02-06T12:41:56.764Z,101778.33
2019-02-06T12:44:32.313Z,101775.66
2019-02-06T12:47:05.958Z,101762.27
2019-02-06T12:49:43.406Z,101765.59
2019-02-06T12:52:14.847Z,101759.02
2019-02-06T12:54:48.208Z,101756.27
2019-02-06T12:57:23.182Z,101749.59
2019-02-06T12:59:57.434Z,101738.77
2019-02-06T13:02:35.975Z,101741.15
2019-02-06T13:05:09.421Z,101731.40
2019-02-06T13:07:40.851Z,101728.03
2019-02-06T13:10:16.911Z,101724.55
2019-02-06T13:12:48.910Z,101717.73
2019-02-06T13:15:19.605Z,101717.91
2019-02-06T13:18:06.023Z,101704.58
2019-02-06T13:20:38.261Z,101705.66
2019-02-06T13:23:09.628Z,101701.14
2019-02-06T13:25:40.396Z,101708.77
2019-02-06T13:28:11.797Z,101710.31
2019-02-06T13:30:42.566Z,101700.00
2019-02-06T13:33:19.783Z,101659.45
2019-02-06T13:35:50.288Z,101704.63
2019-02-06T13:38:23.416Z,101687.90
2019-02-06T13:40:56.947Z,101681.79
2019-02-06T13:43:29.246Z,101691.46
2019-02-06T13:46:00.361Z,101688.32
2019-02-06T13:48:33.735Z,101690.45
2019-02-06T13:51:17.604Z,101696.28
2019-02-06T13:53:48.891Z,101684.63
2019-02-06T13:56:21.097Z,101683.88
2019-02-06T13:58:56.451Z,101692.73
2019-02-06T14:01:32.575Z,101688.90
2019-02-06T14:04:06.047Z,101683.12
2019-02-06T14:06:40.185Z,101677.13
2019-02-06T14:09:22.841Z,101675.13
2019-02-06T14:11:52.452Z,101668.35
2019-02-06T14:14:26.747Z,101664.44
2019-02-06T14:16:57.256Z,101656.11
2019-02-06T14:19:30.799Z,101655.00
2019-02-06T14:22:03.125Z,101654.94
2019-02-06T14:24:43.846Z,101647.59
2019-02-06T14:27:37.727Z,101639.92
2019-02-06T14:30:40.148Z,101631.27
2019-02-06T14:33:51.054Z,101627.97
2019-02-06T14:37:04.738Z,101632.30
2019-02-06T14:40:01.016Z,101634.56
2019-02-06T14:43:00.318Z,101629.48
2019-02-06T14:46:24.263Z,101618.88
2019-02-06T14:49:32.084Z,101614.02
2019-02-06T14:52:33.538Z,101614.97
2019-02-06T14:55:31.311Z,101622.15
2019-02-06T14:58:54.182Z,101624.30
2019-02-06T15:02:09.763Z,101617.09
2019-02-06T15:05:21.143Z,101613.91
2019-02-06T15:08:14.090Z,101610.64
2019-02-06T15:11:06.432Z,101613.42
2019-02-06T15:14:17.205Z,101608.54
2019-02-06T15:17:24.653Z,101602.66
2019-02-06T15:20:33.146Z,101594.08
2019-02-06T15:23:18.895Z,101606.86
2019-02-06T15:26:29.374Z,101600.09
2019-02-06T15:29:37.428Z,101598.08
2019-02-06T15:33:12.113Z,101590.92
2019-02-06T15:36:05.525Z,101590.12
2019-02-06T15:39:20.976Z,101574.16
2019-02-06T15:42:17.738Z,101577.06
2019-02-06T15:45:44.880Z,101570.99
2019-02-06T15:49:12.259Z,101561.08
2019-02-06T15:52:35.833Z,101560.62
2019-02-06T15:55:58.629Z,101566.81
2019-02-06T15:58:42.543Z,101559.13
2019-02-06T16:02:09.424Z,101539.39
2019-02-06T16:05:47.336Z,101548.72
2019-02-06T16:08:58.246Z,101545.66
2019-02-06T16:12:24.488Z,101540.88
2019-02-06T16:15:17.223Z,101542.98
2019-02-06T16:18:22.088Z,101558.39
2019-02-06T16:21:11.008Z,101559.75
2019-02-06T16:24:44.393Z,101556.80
2019-02-06T16:27:49.781Z,101560.09
2019-02-06T16:30:49.017Z,101563.26
2019-02-06T16:34:02.983Z,101559.72
2019-02-06T16:37:18.498Z,101552.24
2019-02-06T16:40:43.658Z,101548.09
2019-02-06T16:43:45.617Z,101518.02
2019-02-06T16:46:40.009Z,101532.72
2019-02-06T16:49:47.016Z,101531.81
2019-02-06T16:53:11.803Z,101532.84
2019-02-06T16:56:13.844Z,101539.03
2019-02-06T16:59:14.687Z,101536.17
2019-02-06T17:02:35.014Z,101542.59
2019-02-06T17:06:00.284Z,101551.48
2019-02-06T17:09:08.616Z,101547.79
2019-02-06T17:12:04.427Z,101545.30
2019-02-06T17:15:33.987Z,101539.58
2019-02-06T17:18:44.783Z,101547.94
2019-02-06T17:21:53.951Z,101543.15
2019-02-06T17:24:56.703Z,101538.34
2019-02-06T17:28:05.362Z,101533.26
2019-02-06T17:31:15.601Z,101533.58
2019-02-06T17:34:22.301Z,101533.45
2019-02-06T17:37:27.004Z,101532.66
2019-02-06T17:40:53.280Z,101526.65
2019-02-06T17:44:00.446Z,101533.14
2019-02-06T17:47:04.855Z,101549.05
2019-02-06T17:50:33.549Z,101541.44
2019-02-06T17:53:24.055Z,101534.66
2019-02-06T17:55:57.515Z,101536.30
2019-02-06T17:58:31.199Z,101522.11
2019-02-06T18:01:10.179Z,101527.38
2019-02-06T18:03:59.978Z,101513.34
2019-02-06T18:06:36.243Z,101516.51
2019-02-06T18:09:22.628Z,101524.59
2019-02-06T18:11:53.147Z,101520.00
2019-02-06T18:14:27.282Z,101507.45
2019-02-06T18:17:04.611Z,101512.22
2019-02-06T18:19:39.891Z,101508.88
2019-02-06T18:22:11.990Z,101502.88
2019-02-06T18:24:49.266Z,101506.32
2019-02-06T18:27:23.582Z,101508.94
2019-02-06T18:30:00.011Z,101504.03
2019-02-06T18:32:39.679Z,101507.41
2019-02-06T18:35:14.427Z,101505.13
2019-02-06T18:37:51.682Z,101502.56
2019-02-06T18:40:25.392Z,101493.90
2019-02-06T18:42:58.136Z,101495.39
2019-02-06T18:45:31.173Z,101501.56
2019-02-06T18:48:08.687Z,101487.54
2019-02-06T18:50:44.894Z,101486.41
2019-02-06T18:53:21.656Z,101478.84
2019-02-06T18:55:54.836Z,101480.57
2019-02-06T18:58:27.599Z,101477.89
2019-02-06T19:01:02.737Z,101472.52
2019-02-06T19:03:38.287Z,101459.94
2019-02-06T19:06:10.611Z,101469.20
2019-02-06T19:08:43.619Z,101460.97
2019-02-06T19:11:16.241Z,101459.58
2019-02-06T19:13:49.932Z,101459.86
2019-02-06T19:16:27.183Z,101456.94
2019-02-06T19:19:00.177Z,101454.02
2019-02-06T19:21:33.877Z,101448.84
2019-02-06T19:24:08.872Z,101458.36
2019-02-06T19:26:39.633Z,101457.34
2019-02-06T19:29:11.662Z,101454.80
2019-02-06T19:31:43.571Z,101457.37
2019-02-06T19:34:17.487Z,101456.63
2019-02-06T19:36:49.084Z,101451.45
2019-02-06T19:39:21.027Z,101445.59
2019-02-06T19:41:51.465Z,101437.70
2019-02-06T19:44:23.259Z,101432.00
2019-02-06T19:47:05.804Z,101426.11
2019-02-06T19:49:37.821Z,101438.91
2019-02-06T19:52:09.826Z,101424.52
2019-02-06T19:54:42.446Z,101418.69
2019-02-06T19:57:14.840Z,101412.56
2019-02-06T19:59:45.553Z,101423.64
2019-02-06T20:02:18.100Z,101423.67
2019-02-06T20:04:48.323Z,101415.61
2019-02-06T20:07:20.768Z,101418.07
2019-02-06T20:09:52.019Z,101421.09
2019-02-06T20:12:24.202Z,101409.11
2019-02-06T20:15:01.386Z,101402.91
2019-02-06T20:17:34.528Z,101397.48
2019-02-06T20:20:07.263Z,101394.84
2019-02-06T20:22:38.794Z,101391.47
2019-02-06T20:25:11.134Z,101386.53
2019-02-06T20:27:45.004Z,101384.62
2019-02-06T20:30:25.125Z,101390.25
2019-02-06T20:33:00.346Z,101391.46
2019-02-06T20:35:35.086Z,101376.50
2019-02-06T20:38:06.322Z,101382.25
2019-02-06T20:40:39.975Z,101384.28
2019-02-06T20:43:21.732Z,101376.91
2019-02-06T20:45:49.053Z,101374.70
2019-02-06T20:48:21.541Z,101369.89
2019-02-06T20:50:52.662Z,101362.63
2019-02-06T20:53:23.539Z,101361.27
2019-02-06T20:55:55.290Z,101357.69
2019-02-06T20:58:27.420Z,101354.85
2019-02-06T21:00:59.852Z,101353.82
2019-02-06T21:03:33.403Z,101353.77
2019-02-06T21:06:07.163Z,101357.40
2019-02-06T21:08:39.055Z,101344.88
2019-02-06T21:11:11.791Z,101343.70
2019-02-06T21:13:42.940Z,101338.52
2019-02-06T21:16:13.195Z,101340.88
2019-02-06T21:18:43.555Z,101341.68
2019-02-06T21:21:16.412Z,101336.36
2019-02-06T21:23:49.462Z,101330.83
2019-02-06T21:26:20.076Z,101328.42
2019-02-06T21:28:50.599Z,101323.28
2019-02-06T21:31:22.236Z,101318.87
2019-02-06T21:33:54.594Z,101322.83
2019-02-06T21:36:25.795Z,101320.70
2019-02-06T21:38:56.203Z,101328.03
2019-02-06T21:41:27.676Z,101329.11
2019-02-06T21:43:59.620Z,101326.31
2019-02-06T21:46:30.418Z,101326.13
2019-02-06T21:49:02.695Z,101327.55
2019-02-06T21:51:38.162Z,101328.42
2019-02-06T21:54:11.083Z,101319.91
2019-02-06T21:56:46.104Z,101318.34
2019-02-06T21:59:19.342Z,101316.78
2019-02-06T22:01:51.030Z,101317.50
2019-02-06T22:04:21.681Z,101309.62
2019-02-06T22:06:52.827Z,101310.22
2019-02-06T22:09:25.659Z,101305.78
2019-02-06T22:11:56.627Z,101297.90
2019-02-06T22:14:27.258Z,101300.14
2019-02-06T22:17:00.549Z,101291.45
2019-02-06T22:19:30.984Z,101289.06
2019-02-06T22:22:02.041Z,101285.80
2019-02-06T22:24:33.480Z,101274.71
2019-02-06T22:27:04.661Z,101277.30
2019-02-06T22:29:35.351Z,101275.50
2019-02-06T22:32:06.250Z,101266.83
2019-02-06T22:34:36.985Z,101267.18
2019-02-06T22:37:08.907Z,101268.00
2019-02-06T22:39:40.956Z,101269.42
2019-02-06T22:42:11.305Z,101272.85
2019-02-06T22:44:42.868Z,101266.56
2019-02-06T22:47:14.508Z,101263.52
2019-02-06T22:49:45.577Z,101256.48
2019-02-06T22:52:16.228Z,101248.22
2019-02-06T22:54:47.545Z,101250.70
2019-02-06T22:57:20.038Z,101244.92
2019-02-06T22:59:50.340Z,101243.16
2019-02-06T23:02:21.188Z,101233.13
2019-02-06T23:04:52.417Z,101230.70
2019-02-06T23:07:23.577Z,101232.94
2019-02-06T23:09:56.306Z,101226.56
2019-02-06T23:12:28.032Z,101226.56
2019-02-06T23:14:59.977Z,101226.78
2019-02-06T23:17:32.420Z,101229.69
2019-02-06T23:20:04.568Z,101225.81
2019-02-06T23:22:35.373Z,101223.83
2019-02-06T23:25:08.190Z,101225.77
2019-02-06T23:27:40.097Z,101213.84
2019-02-06T23:30:13.830Z,101204.13
2019-02-06T23:32:45.768Z,101203.98
2019-02-06T23:35:17.342Z,101199.51
2019-02-06T23:37:48.486Z,101194.31
2019-02-06T23:40:20.452Z,101186.13
2019-02-06T23:42:52.014Z,101178.54
2019-02-06T23:45:24.665Z,101169.80
2019-02-06T23:47:56.661Z,101170.23
2019-02-06T23:50:29.625Z,101160.11
2019-02-06T23:53:01.294Z,101156.41
2019-02-06T23:55:33.663Z,101145.59
2019-02-06T23:58:07.350Z,101148.04
